sensor_id;sensor_type;location;lat;lon;timestamp;P1;durP1;ratioP1;P2;durP2;ratioP2
3369;SDS011;42042;51.948;7.628;2023-04-28T00:02:03;5.60;;;5.10;;
3369;SDS011;42042;51.948;7.628;2023-04-28T00:04:30;10.10;;;5.20;;
3369;SDS011;42042;51.948;7.628;2023-04-28T00:06:57;6.27;;;5.00;;
3369;SDS011;42042;51.948;7.628;2023-04-28T00:09:24;5.40;;;4.80;;
3369;SDS011;42042;51.948;7.628;2023-04-28T00:11:51;5.17;;;4.70;;
3369;SDS011;42042;51.948;7.628;2023-04-28T00:14:19;5.43;;;4.37;;
3369;SDS011;42042;51.948;7.628;2023-04-28T00:16:47;5.63;;;4.97;;
3369;SDS011;42042;51.948;7.628;2023-04-28T00:19:14;7.53;;;5.00;;
3369;SDS011;42042;51.948;7.628;2023-04-28T00:21:41;5.53;;;4.67;;
3369;SDS011;42042;51.948;7.628;2023-04-28T00:24:09;5.20;;;4.03;;
3369;SDS011;42042;51.948;7.628;2023-04-28T00:26:36;8.33;;;4.63;;
3369;SDS011;42042;51.948;7.628;2023-04-28T00:29:03;7.23;;;4.57;;
3369;SDS011;42042;51.948;7.628;2023-04-28T00:31:30;5.40;;;4.70;;
3369;SDS011;42042;51.948;7.628;2023-04-28T00:34:00;6.40;;;4.03;;
3369;SDS011;42042;51.948;7.628;2023-04-28T00:36:27;4.73;;;4.03;;
3369;SDS011;42042;51.948;7.628;2023-04-28T00:38:57;7.10;;;4.93;;
3369;SDS011;42042;51.948;7.628;2023-04-28T00:41:24;6.43;;;4.97;;
3369;SDS011;42042;51.948;7.628;2023-04-28T00:43:51;5.63;;;4.50;;
3369;SDS011;42042;51.948;7.628;2023-04-28T00:46:19;6.93;;;5.00;;
3369;SDS011;42042;51.948;7.628;2023-04-28T00:48:48;5.68;;;5.18;;
3369;SDS011;42042;51.948;7.628;2023-04-28T00:51:16;6.00;;;4.90;;
3369;SDS011;42042;51.948;7.628;2023-04-28T00:53:44;4.95;;;4.55;;
3369;SDS011;42042;51.948;7.628;2023-04-28T00:56:11;5.17;;;4.10;;
3369;SDS011;42042;51.948;7.628;2023-04-28T00:58:38;5.33;;;4.43;;
3369;SDS011;42042;51.948;7.628;2023-04-28T01:01:06;6.80;;;4.80;;
3369;SDS011;42042;51.948;7.628;2023-04-28T01:03:34;5.57;;;4.43;;
3369;SDS011;42042;51.948;7.628;2023-04-28T01:06:03;5.97;;;4.60;;
3369;SDS011;42042;51.948;7.628;2023-04-28T01:08:32;6.80;;;4.50;;
3369;SDS011;42042;51.948;7.628;2023-04-28T01:10:59;5.23;;;4.70;;
3369;SDS011;42042;51.948;7.628;2023-04-28T01:13:27;6.47;;;5.13;;
3369;SDS011;42042;51.948;7.628;2023-04-28T01:15:54;5.20;;;4.70;;
3369;SDS011;42042;51.948;7.628;2023-04-28T01:18:21;8.38;;;4.90;;
3369;SDS011;42042;51.948;7.628;2023-04-28T01:20:49;5.10;;;4.23;;
3369;SDS011;42042;51.948;7.628;2023-04-28T01:23:16;7.13;;;4.80;;
3369;SDS011;42042;51.948;7.628;2023-04-28T01:25:45;5.83;;;5.23;;
3369;SDS011;42042;51.948;7.628;2023-04-28T01:28:12;7.60;;;4.50;;
3369;SDS011;42042;51.948;7.628;2023-04-28T01:30:39;4.28;;;3.85;;
3369;SDS011;42042;51.948;7.628;2023-04-28T01:33:06;5.70;;;5.10;;
3369;SDS011;42042;51.948;7.628;2023-04-28T01:35:34;8.40;;;5.40;;
3369;SDS011;42042;51.948;7.628;2023-04-28T01:38:01;6.27;;;4.97;;
3369;SDS011;42042;51.948;7.628;2023-04-28T01:40:28;5.17;;;4.13;;
3369;SDS011;42042;51.948;7.628;2023-04-28T01:42:57;7.30;;;5.03;;
3369;SDS011;42042;51.948;7.628;2023-04-28T01:45:24;5.43;;;4.80;;
3369;SDS011;42042;51.948;7.628;2023-04-28T01:47:51;5.77;;;4.50;;
3369;SDS011;42042;51.948;7.628;2023-04-28T01:50:19;5.73;;;5.00;;
3369;SDS011;42042;51.948;7.628;2023-04-28T01:52:46;6.00;;;5.40;;
3369;SDS011;42042;51.948;7.628;2023-04-28T01:55:13;4.83;;;4.10;;
3369;SDS011;42042;51.948;7.628;2023-04-28T01:57:52;5.30;;;4.40;;
3369;SDS011;42042;51.948;7.628;2023-04-28T02:00:20;6.17;;;5.00;;
3369;SDS011;42042;51.948;7.628;2023-04-28T02:02:48;5.17;;;4.67;;
3369;SDS011;42042;51.948;7.628;2023-04-28T02:05:15;6.37;;;4.67;;
3369;SDS011;42042;51.948;7.628;2023-04-28T02:07:42;6.80;;;4.77;;
3369;SDS011;42042;51.948;7.628;2023-04-28T02:10:10;7.80;;;5.57;;
3369;SDS011;42042;51.948;7.628;2023-04-28T02:12:37;6.90;;;5.60;;
3369;SDS011;42042;51.948;7.628;2023-04-28T02:15:06;4.70;;;4.25;;
3369;SDS011;42042;51.948;7.628;2023-04-28T02:17:35;4.95;;;4.53;;
3369;SDS011;42042;51.948;7.628;2023-04-28T02:20:02;6.15;;;4.85;;
3369;SDS011;42042;51.948;7.628;2023-04-28T02:22:30;6.50;;;4.73;;
3369;SDS011;42042;51.948;7.628;2023-04-28T02:24:57;7.67;;;4.83;;
3369;SDS011;42042;51.948;7.628;2023-04-28T02:27:24;6.63;;;5.23;;
3369;SDS011;42042;51.948;7.628;2023-04-28T02:29:52;6.83;;;5.07;;
3369;SDS011;42042;51.948;7.628;2023-04-28T02:32:19;10.80;;;5.87;;
3369;SDS011;42042;51.948;7.628;2023-04-28T02:34:51;6.60;;;5.30;;
3369;SDS011;42042;51.948;7.628;2023-04-28T02:37:18;7.73;;;5.30;;
3369;SDS011;42042;51.948;7.628;2023-04-28T02:39:45;5.83;;;5.20;;
3369;SDS011;42042;51.948;7.628;2023-04-28T02:42:12;6.73;;;5.20;;
3369;SDS011;42042;51.948;7.628;2023-04-28T02:44:40;7.23;;;4.67;;
3369;SDS011;42042;51.948;7.628;2023-04-28T02:47:07;7.67;;;5.20;;
3369;SDS011;42042;51.948;7.628;2023-04-28T02:49:34;5.63;;;5.03;;
3369;SDS011;42042;51.948;7.628;2023-04-28T02:52:03;7.13;;;5.30;;
3369;SDS011;42042;51.948;7.628;2023-04-28T02:54:30;7.30;;;5.47;;
3369;SDS011;42042;51.948;7.628;2023-04-28T02:56:59;7.40;;;5.70;;
3369;SDS011;42042;51.948;7.628;2023-04-28T02:59:27;7.90;;;5.63;;
3369;SDS011;42042;51.948;7.628;2023-04-28T03:01:55;13.80;;;6.23;;
3369;SDS011;42042;51.948;7.628;2023-04-28T03:04:22;5.63;;;4.33;;
3369;SDS011;42042;51.948;7.628;2023-04-28T03:06:49;8.43;;;5.90;;
3369;SDS011;42042;51.948;7.628;2023-04-28T03:09:18;7.77;;;5.33;;
3369;SDS011;42042;51.948;7.628;2023-04-28T03:11:45;6.23;;;5.50;;
3369;SDS011;42042;51.948;7.628;2023-04-28T03:14:12;6.10;;;5.50;;
3369;SDS011;42042;51.948;7.628;2023-04-28T03:16:39;7.00;;;5.53;;
3369;SDS011;42042;51.948;7.628;2023-04-28T03:19:07;7.87;;;5.87;;
3369;SDS011;42042;51.948;7.628;2023-04-28T03:21:34;11.60;;;6.07;;
3369;SDS011;42042;51.948;7.628;2023-04-28T03:24:01;6.33;;;5.67;;
3369;SDS011;42042;51.948;7.628;2023-04-28T03:26:29;7.83;;;5.57;;
3369;SDS011;42042;51.948;7.628;2023-04-28T03:28:56;6.17;;;5.57;;
3369;SDS011;42042;51.948;7.628;2023-04-28T03:31:24;9.87;;;5.83;;
3369;SDS011;42042;51.948;7.628;2023-04-28T03:33:51;6.23;;;5.63;;
3369;SDS011;42042;51.948;7.628;2023-04-28T03:36:18;11.00;;;6.60;;
3369;SDS011;42042;51.948;7.628;2023-04-28T03:38:45;8.70;;;6.90;;
3369;SDS011;42042;51.948;7.628;2023-04-28T03:41:13;7.27;;;5.80;;
3369;SDS011;42042;51.948;7.628;2023-04-28T03:43:41;8.77;;;5.80;;
3369;SDS011;42042;51.948;7.628;2023-04-28T03:46:08;7.47;;;5.93;;
3369;SDS011;42042;51.948;7.628;2023-04-28T03:48:35;7.10;;;5.80;;
3369;SDS011;42042;51.948;7.628;2023-04-28T03:51:03;8.63;;;6.03;;
3369;SDS011;42042;51.948;7.628;2023-04-28T03:53:30;6.80;;;5.43;;
3369;SDS011;42042;51.948;7.628;2023-04-28T03:55:57;8.63;;;6.60;;
3369;SDS011;42042;51.948;7.628;2023-04-28T03:58:24;6.87;;;6.17;;
3369;SDS011;42042;51.948;7.628;2023-04-28T04:00:53;7.73;;;6.17;;
3369;SDS011;42042;51.948;7.628;2023-04-28T04:03:21;9.03;;;6.50;;
3369;SDS011;42042;51.948;7.628;2023-04-28T04:05:50;8.97;;;7.23;;
3369;SDS011;42042;51.948;7.628;2023-04-28T04:08:17;10.23;;;6.63;;
3369;SDS011;42042;51.948;7.628;2023-04-28T04:10:45;13.60;;;6.43;;
3369;SDS011;42042;51.948;7.628;2023-04-28T04:13:12;13.73;;;7.60;;
3369;SDS011;42042;51.948;7.628;2023-04-28T04:15:39;11.33;;;7.00;;
3369;SDS011;42042;51.948;7.628;2023-04-28T04:18:08;10.40;;;7.20;;
3369;SDS011;42042;51.948;7.628;2023-04-28T04:20:35;7.87;;;6.80;;
3369;SDS011;42042;51.948;7.628;2023-04-28T04:23:02;18.27;;;10.67;;
3369;SDS011;42042;51.948;7.628;2023-04-28T04:25:29;12.97;;;8.33;;
3369;SDS011;42042;51.948;7.628;2023-04-28T04:27:57;14.70;;;8.03;;
3369;SDS011;42042;51.948;7.628;2023-04-28T04:30:24;18.20;;;8.20;;
3369;SDS011;42042;51.948;7.628;2023-04-28T04:32:51;11.97;;;7.83;;
3369;SDS011;42042;51.948;7.628;2023-04-28T04:35:20;10.70;;;8.73;;
3369;SDS011;42042;51.948;7.628;2023-04-28T04:37:47;8.30;;;7.30;;
3369;SDS011;42042;51.948;7.628;2023-04-28T04:40:15;10.33;;;7.90;;
3369;SDS011;42042;51.948;7.628;2023-04-28T04:42:42;15.17;;;7.97;;
3369;SDS011;42042;51.948;7.628;2023-04-28T04:45:09;11.07;;;8.97;;
3369;SDS011;42042;51.948;7.628;2023-04-28T04:47:37;14.63;;;8.73;;
3369;SDS011;42042;51.948;7.628;2023-04-28T04:50:04;15.30;;;7.60;;
3369;SDS011;42042;51.948;7.628;2023-04-28T04:52:33;11.60;;;8.00;;
3369;SDS011;42042;51.948;7.628;2023-04-28T04:55:01;9.83;;;7.47;;
3369;SDS011;42042;51.948;7.628;2023-04-28T04:57:28;14.30;;;7.45;;
3369;SDS011;42042;51.948;7.628;2023-04-28T04:59:55;13.53;;;9.17;;
3369;SDS011;42042;51.948;7.628;2023-04-28T05:02:23;13.53;;;9.10;;
3369;SDS011;42042;51.948;7.628;2023-04-28T05:04:50;10.83;;;8.73;;
3369;SDS011;42042;51.948;7.628;2023-04-28T05:07:17;8.90;;;7.95;;
3369;SDS011;42042;51.948;7.628;2023-04-28T05:09:45;11.20;;;8.77;;
3369;SDS011;42042;51.948;7.628;2023-04-28T05:12:13;14.13;;;9.17;;
3369;SDS011;42042;51.948;7.628;2023-04-28T05:14:40;12.13;;;8.63;;
3369;SDS011;42042;51.948;7.628;2023-04-28T05:17:07;11.27;;;7.90;;
3369;SDS011;42042;51.948;7.628;2023-04-28T05:19:34;19.70;;;15.20;;
3369;SDS011;42042;51.948;7.628;2023-04-28T05:22:01;15.67;;;12.40;;
3369;SDS011;42042;51.948;7.628;2023-04-28T05:24:29;13.60;;;8.83;;
3369;SDS011;42042;51.948;7.628;2023-04-28T05:26:58;10.57;;;9.40;;
3369;SDS011;42042;51.948;7.628;2023-04-28T05:29:25;9.87;;;8.50;;
3369;SDS011;42042;51.948;7.628;2023-04-28T05:31:52;13.83;;;9.07;;
3369;SDS011;42042;51.948;7.628;2023-04-28T05:34:20;15.27;;;9.33;;
3369;SDS011;42042;51.948;7.628;2023-04-28T05:36:47;14.77;;;10.10;;
3369;SDS011;42042;51.948;7.628;2023-04-28T05:39:14;13.60;;;8.80;;
3369;SDS011;42042;51.948;7.628;2023-04-28T05:41:41;15.23;;;9.30;;
3369;SDS011;42042;51.948;7.628;2023-04-28T05:44:10;12.70;;;9.70;;
3369;SDS011;42042;51.948;7.628;2023-04-28T05:46:37;11.80;;;9.13;;
3369;SDS011;42042;51.948;7.628;2023-04-28T05:49:04;15.37;;;9.90;;
3369;SDS011;42042;51.948;7.628;2023-04-28T05:51:31;20.43;;;15.03;;
3369;SDS011;42042;51.948;7.628;2023-04-28T05:53:58;14.73;;;11.20;;
3369;SDS011;42042;51.948;7.628;2023-04-28T05:56:26;12.77;;;9.13;;
3369;SDS011;42042;51.948;7.628;2023-04-28T05:58:53;11.87;;;10.67;;
3369;SDS011;42042;51.948;7.628;2023-04-28T06:01:22;14.13;;;10.67;;
3369;SDS011;42042;51.948;7.628;2023-04-28T06:03:49;10.80;;;9.70;;
3369;SDS011;42042;51.948;7.628;2023-04-28T06:06:17;17.43;;;11.10;;
3369;SDS011;42042;51.948;7.628;2023-04-28T06:08:45;12.63;;;8.70;;
3369;SDS011;42042;51.948;7.628;2023-04-28T06:11:12;12.33;;;10.30;;
3369;SDS011;42042;51.948;7.628;2023-04-28T06:13:40;16.40;;;9.63;;
3369;SDS011;42042;51.948;7.628;2023-04-28T06:16:07;10.93;;;9.00;;
3369;SDS011;42042;51.948;7.628;2023-04-28T06:18:35;14.07;;;9.43;;
3369;SDS011;42042;51.948;7.628;2023-04-28T06:21:02;10.27;;;9.03;;
3369;SDS011;42042;51.948;7.628;2023-04-28T06:23:30;15.63;;;10.13;;
3369;SDS011;42042;51.948;7.628;2023-04-28T06:25:57;11.57;;;9.87;;
3369;SDS011;42042;51.948;7.628;2023-04-28T06:28:24;14.97;;;10.17;;
3369;SDS011;42042;51.948;7.628;2023-04-28T06:30:51;13.43;;;9.70;;
3369;SDS011;42042;51.948;7.628;2023-04-28T06:33:18;17.90;;;9.90;;
3369;SDS011;42042;51.948;7.628;2023-04-28T06:35:47;11.83;;;9.30;;
3369;SDS011;42042;51.948;7.628;2023-04-28T06:38:15;11.87;;;10.77;;
3369;SDS011;42042;51.948;7.628;2023-04-28T06:40:42;11.27;;;9.87;;
3369;SDS011;42042;51.948;7.628;2023-04-28T06:43:09;13.27;;;10.17;;
3369;SDS011;42042;51.948;7.628;2023-04-28T06:45:36;12.30;;;9.80;;
3369;SDS011;42042;51.948;7.628;2023-04-28T06:48:04;12.13;;;9.53;;
3369;SDS011;42042;51.948;7.628;2023-04-28T06:50:32;14.50;;;11.07;;
3369;SDS011;42042;51.948;7.628;2023-04-28T06:53:00;11.63;;;9.70;;
3369;SDS011;42042;51.948;7.628;2023-04-28T06:55:28;12.13;;;9.87;;
3369;SDS011;42042;51.948;7.628;2023-04-28T06:57:55;20.40;;;10.40;;
3369;SDS011;42042;51.948;7.628;2023-04-28T07:00:22;13.63;;;10.77;;
3369;SDS011;42042;51.948;7.628;2023-04-28T07:02:50;13.80;;;9.60;;
3369;SDS011;42042;51.948;7.628;2023-04-28T07:05:17;17.03;;;10.53;;
3369;SDS011;42042;51.948;7.628;2023-04-28T07:07:44;13.57;;;11.30;;
3369;SDS011;42042;51.948;7.628;2023-04-28T07:10:12;15.13;;;10.27;;
3369;SDS011;42042;51.948;7.628;2023-04-28T07:12:40;15.33;;;10.80;;
3369;SDS011;42042;51.948;7.628;2023-04-28T07:15:07;11.10;;;9.80;;
3369;SDS011;42042;51.948;7.628;2023-04-28T07:17:34;12.17;;;9.93;;
3369;SDS011;42042;51.948;7.628;2023-04-28T07:20:02;15.57;;;10.17;;
3369;SDS011;42042;51.948;7.628;2023-04-28T07:22:29;14.90;;;11.70;;
3369;SDS011;42042;51.948;7.628;2023-04-28T07:24:56;13.20;;;9.97;;
3369;SDS011;42042;51.948;7.628;2023-04-28T07:27:25;14.03;;;9.93;;
3369;SDS011;42042;51.948;7.628;2023-04-28T07:29:52;18.53;;;11.37;;
3369;SDS011;42042;51.948;7.628;2023-04-28T07:32:19;13.27;;;11.10;;
3369;SDS011;42042;51.948;7.628;2023-04-28T07:34:47;11.67;;;10.47;;
3369;SDS011;42042;51.948;7.628;2023-04-28T07:37:14;15.00;;;10.77;;
3369;SDS011;42042;51.948;7.628;2023-04-28T07:39:42;14.63;;;9.90;;
3369;SDS011;42042;51.948;7.628;2023-04-28T07:42:09;11.03;;;9.83;;
3369;SDS011;42042;51.948;7.628;2023-04-28T07:44:38;12.43;;;10.10;;
3369;SDS011;42042;51.948;7.628;2023-04-28T07:47:05;12.33;;;11.13;;
3369;SDS011;42042;51.948;7.628;2023-04-28T07:49:32;14.00;;;11.40;;
3369;SDS011;42042;51.948;7.628;2023-04-28T07:52:00;14.80;;;10.30;;
3369;SDS011;42042;51.948;7.628;2023-04-28T07:54:27;12.50;;;10.40;;
3369;SDS011;42042;51.948;7.628;2023-04-28T07:56:55;22.13;;;13.37;;
3369;SDS011;42042;51.948;7.628;2023-04-28T07:59:23;12.30;;;9.90;;
3369;SDS011;42042;51.948;7.628;2023-04-28T08:01:51;12.73;;;11.43;;
3369;SDS011;42042;51.948;7.628;2023-04-28T08:04:18;13.27;;;10.43;;
3369;SDS011;42042;51.948;7.628;2023-04-28T08:06:46;12.80;;;11.10;;
3369;SDS011;42042;51.948;7.628;2023-04-28T08:09:13;13.87;;;10.47;;
3369;SDS011;42042;51.948;7.628;2023-04-28T08:11:40;16.83;;;11.80;;
3369;SDS011;42042;51.948;7.628;2023-04-28T08:14:07;14.07;;;12.07;;
3369;SDS011;42042;51.948;7.628;2023-04-28T08:16:34;16.60;;;11.23;;
3369;SDS011;42042;51.948;7.628;2023-04-28T08:19:05;16.37;;;12.97;;
3369;SDS011;42042;51.948;7.628;2023-04-28T08:21:33;13.97;;;10.63;;
3369;SDS011;42042;51.948;7.628;2023-04-28T08:24:00;15.87;;;12.90;;
3369;SDS011;42042;51.948;7.628;2023-04-28T08:26:27;14.03;;;11.50;;
3369;SDS011;42042;51.948;7.628;2023-04-28T08:28:55;17.60;;;12.20;;
3369;SDS011;42042;51.948;7.628;2023-04-28T08:31:22;17.90;;;13.03;;
3369;SDS011;42042;51.948;7.628;2023-04-28T08:33:49;14.00;;;12.50;;
3369;SDS011;42042;51.948;7.628;2023-04-28T08:36:18;18.20;;;12.77;;
3369;SDS011;42042;51.948;7.628;2023-04-28T08:38:45;19.10;;;13.70;;
3369;SDS011;42042;51.948;7.628;2023-04-28T08:41:14;16.90;;;12.97;;
3369;SDS011;42042;51.948;7.628;2023-04-28T08:43:42;20.50;;;14.03;;
3369;SDS011;42042;51.948;7.628;2023-04-28T08:46:09;16.70;;;14.70;;
3369;SDS011;42042;51.948;7.628;2023-04-28T08:48:38;15.83;;;14.20;;
3369;SDS011;42042;51.948;7.628;2023-04-28T08:51:07;17.10;;;14.70;;
3369;SDS011;42042;51.948;7.628;2023-04-28T08:53:37;31.20;;;20.70;;
3369;SDS011;42042;51.948;7.628;2023-04-28T08:56:05;15.00;;;13.50;;
3369;SDS011;42042;51.948;7.628;2023-04-28T08:58:34;17.50;;;14.30;;
3369;SDS011;42042;51.948;7.628;2023-04-28T09:01:02;16.37;;;13.80;;
3369;SDS011;42042;51.948;7.628;2023-04-28T09:03:29;16.70;;;12.63;;
3369;SDS011;42042;51.948;7.628;2023-04-28T09:05:57;14.77;;;12.37;;
3369;SDS011;42042;51.948;7.628;2023-04-28T09:08:24;15.90;;;13.40;;
3369;SDS011;42042;51.948;7.628;2023-04-28T09:11:05;22.00;;;13.10;;
3369;SDS011;42042;51.948;7.628;2023-04-28T09:13:33;17.80;;;12.50;;
3369;SDS011;42042;51.948;7.628;2023-04-28T09:16:01;14.17;;;11.73;;
3369;SDS011;42042;51.948;7.628;2023-04-28T09:18:28;14.10;;;12.70;;
3369;SDS011;42042;51.948;7.628;2023-04-28T09:21:03;15.27;;;11.97;;
3369;SDS011;42042;51.948;7.628;2023-04-28T09:23:31;13.60;;;12.20;;
3369;SDS011;42042;51.948;7.628;2023-04-28T09:25:59;15.23;;;11.43;;
3369;SDS011;42042;51.948;7.628;2023-04-28T09:28:28;13.53;;;11.80;;
3369;SDS011;42042;51.948;7.628;2023-04-28T09:30:56;14.97;;;13.10;;
3369;SDS011;42042;51.948;7.628;2023-04-28T09:33:23;13.93;;;11.40;;
3369;SDS011;42042;51.948;7.628;2023-04-28T09:35:50;15.80;;;11.33;;
3369;SDS011;42042;51.948;7.628;2023-04-28T09:38:18;16.80;;;11.30;;
3369;SDS011;42042;51.948;7.628;2023-04-28T09:40:49;14.17;;;12.10;;
3369;SDS011;42042;51.948;7.628;2023-04-28T09:43:23;16.13;;;10.60;;
3369;SDS011;42042;51.948;7.628;2023-04-28T09:45:52;12.10;;;10.70;;
3369;SDS011;42042;51.948;7.628;2023-04-28T09:48:29;10.60;;;9.60;;
3369;SDS011;42042;51.948;7.628;2023-04-28T09:50:57;14.50;;;10.50;;
3369;SDS011;42042;51.948;7.628;2023-04-28T09:53:24;11.83;;;10.30;;
3369;SDS011;42042;51.948;7.628;2023-04-28T09:55:52;12.80;;;10.20;;
3369;SDS011;42042;51.948;7.628;2023-04-28T09:58:20;14.63;;;12.10;;
3369;SDS011;42042;51.948;7.628;2023-04-28T10:00:49;11.30;;;9.97;;
3369;SDS011;42042;51.948;7.628;2023-04-28T10:03:19;11.53;;;10.33;;
3369;SDS011;42042;51.948;7.628;2023-04-28T10:05:47;15.33;;;10.00;;
3369;SDS011;42042;51.948;7.628;2023-04-28T10:08:15;12.83;;;10.00;;
3369;SDS011;42042;51.948;7.628;2023-04-28T10:10:43;11.60;;;9.87;;
3369;SDS011;42042;51.948;7.628;2023-04-28T10:13:13;15.17;;;9.70;;
3369;SDS011;42042;51.948;7.628;2023-04-28T10:15:41;14.50;;;11.63;;
3369;SDS011;42042;51.948;7.628;2023-04-28T10:18:08;11.67;;;9.97;;
3369;SDS011;42042;51.948;7.628;2023-04-28T10:20:37;10.73;;;9.63;;
3369;SDS011;42042;51.948;7.628;2023-04-28T10:23:10;13.57;;;10.00;;
3369;SDS011;42042;51.948;7.628;2023-04-28T10:25:43;11.37;;;10.10;;
3369;SDS011;42042;51.948;7.628;2023-04-28T10:28:15;11.80;;;10.27;;
3369;SDS011;42042;51.948;7.628;2023-04-28T10:30:43;10.77;;;9.67;;
3369;SDS011;42042;51.948;7.628;2023-04-28T10:33:31;11.50;;;9.00;;
3369;SDS011;42042;51.948;7.628;2023-04-28T10:35:59;11.33;;;10.03;;
3369;SDS011;42042;51.948;7.628;2023-04-28T10:38:28;11.70;;;10.53;;
3369;SDS011;42042;51.948;7.628;2023-04-28T10:40:55;11.37;;;10.27;;
3369;SDS011;42042;51.948;7.628;2023-04-28T10:43:35;11.57;;;10.47;;
3369;SDS011;42042;51.948;7.628;2023-04-28T10:46:07;11.60;;;10.40;;
3369;SDS011;42042;51.948;7.628;2023-04-28T10:48:53;13.10;;;10.03;;
3369;SDS011;42042;51.948;7.628;2023-04-28T10:51:22;11.47;;;10.27;;
3369;SDS011;42042;51.948;7.628;2023-04-28T10:56:35;12.30;;;11.00;;
3369;SDS011;42042;51.948;7.628;2023-04-28T10:59:02;10.77;;;9.77;;
3369;SDS011;42042;51.948;7.628;2023-04-28T11:01:49;13.47;;;10.00;;
3369;SDS011;42042;51.948;7.628;2023-04-28T11:04:16;12.40;;;10.27;;
3369;SDS011;42042;51.948;7.628;2023-04-28T11:06:45;11.57;;;10.30;;
3369;SDS011;42042;51.948;7.628;2023-04-28T11:12:03;11.90;;;9.97;;
3369;SDS011;42042;51.948;7.628;2023-04-28T11:14:31;14.67;;;12.47;;
3369;SDS011;42042;51.948;7.628;2023-04-28T11:16:59;12.63;;;11.43;;
3369;SDS011;42042;51.948;7.628;2023-04-28T11:19:28;13.63;;;12.23;;
3369;SDS011;42042;51.948;7.628;2023-04-28T11:21:57;12.20;;;11.20;;
3369;SDS011;42042;51.948;7.628;2023-04-28T11:24:25;11.73;;;10.73;;
3369;SDS011;42042;51.948;7.628;2023-04-28T11:26:53;15.50;;;12.83;;
3369;SDS011;42042;51.948;7.628;2023-04-28T11:29:29;13.63;;;12.27;;
3369;SDS011;42042;51.948;7.628;2023-04-28T11:31:57;14.63;;;13.13;;
3369;SDS011;42042;51.948;7.628;2023-04-28T11:34:24;15.13;;;13.00;;
3369;SDS011;42042;51.948;7.628;2023-04-28T11:36:51;13.80;;;12.50;;
3369;SDS011;42042;51.948;7.628;2023-04-28T11:39:25;17.33;;;13.50;;
3369;SDS011;42042;51.948;7.628;2023-04-28T11:41:54;15.00;;;13.60;;
3369;SDS011;42042;51.948;7.628;2023-04-28T11:44:21;15.40;;;13.90;;
3369;SDS011;42042;51.948;7.628;2023-04-28T11:46:49;15.23;;;13.83;;
3369;SDS011;42042;51.948;7.628;2023-04-28T11:49:20;14.10;;;12.77;;
3369;SDS011;42042;51.948;7.628;2023-04-28T11:51:48;14.67;;;13.20;;
3369;SDS011;42042;51.948;7.628;2023-04-28T11:54:19;14.57;;;13.37;;
3369;SDS011;42042;51.948;7.628;2023-04-28T11:56:48;15.57;;;13.17;;
3369;SDS011;42042;51.948;7.628;2023-04-28T11:59:15;14.37;;;12.97;;
3369;SDS011;42042;51.948;7.628;2023-04-28T12:01:45;14.40;;;13.10;;
3369;SDS011;42042;51.948;7.628;2023-04-28T12:04:13;14.90;;;13.20;;
3369;SDS011;42042;51.948;7.628;2023-04-28T12:09:17;15.43;;;13.40;;
3369;SDS011;42042;51.948;7.628;2023-04-28T12:11:53;15.63;;;14.00;;
3369;SDS011;42042;51.948;7.628;2023-04-28T12:14:21;15.70;;;14.20;;
3369;SDS011;42042;51.948;7.628;2023-04-28T12:16:49;16.07;;;14.40;;
3369;SDS011;42042;51.948;7.628;2023-04-28T12:19:17;15.10;;;13.77;;
3369;SDS011;42042;51.948;7.628;2023-04-28T12:21:57;14.80;;;13.40;;
3369;SDS011;42042;51.948;7.628;2023-04-28T12:24:25;18.27;;;15.03;;
3369;SDS011;42042;51.948;7.628;2023-04-28T12:26:54;16.50;;;14.97;;
3369;SDS011;42042;51.948;7.628;2023-04-28T12:29:37;16.87;;;15.30;;
3369;SDS011;42042;51.948;7.628;2023-04-28T12:32:08;19.53;;;15.40;;
3369;SDS011;42042;51.948;7.628;2023-04-28T12:34:36;17.43;;;15.87;;
3369;SDS011;42042;51.948;7.628;2023-04-28T12:37:04;17.30;;;15.60;;
3369;SDS011;42042;51.948;7.628;2023-04-28T12:39:32;18.00;;;16.30;;
3369;SDS011;42042;51.948;7.628;2023-04-28T12:42:01;17.90;;;16.07;;
3369;SDS011;42042;51.948;7.628;2023-04-28T12:44:30;15.93;;;14.30;;
3369;SDS011;42042;51.948;7.628;2023-04-28T12:47:00;16.20;;;14.80;;
3369;SDS011;42042;51.948;7.628;2023-04-28T12:49:27;18.17;;;16.37;;
3369;SDS011;42042;51.948;7.628;2023-04-28T12:51:54;19.40;;;16.80;;
3369;SDS011;42042;51.948;7.628;2023-04-28T12:54:21;19.70;;;16.70;;
3369;SDS011;42042;51.948;7.628;2023-04-28T12:56:48;19.50;;;17.50;;
3369;SDS011;42042;51.948;7.628;2023-04-28T12:59:17;17.80;;;16.03;;
3369;SDS011;42042;51.948;7.628;2023-04-28T13:01:45;18.93;;;17.03;;
3369;SDS011;42042;51.948;7.628;2023-04-28T13:04:12;16.60;;;15.00;;
3369;SDS011;42042;51.948;7.628;2023-04-28T13:06:39;18.20;;;16.27;;
3369;SDS011;42042;51.948;7.628;2023-04-28T13:09:08;18.47;;;16.63;;
3369;SDS011;42042;51.948;7.628;2023-04-28T13:11:36;17.73;;;15.10;;
3369;SDS011;42042;51.948;7.628;2023-04-28T13:14:03;17.50;;;15.70;;
3369;SDS011;42042;51.948;7.628;2023-04-28T13:16:31;15.20;;;13.20;;
3369;SDS011;42042;51.948;7.628;2023-04-28T13:18:59;15.50;;;14.00;;
3369;SDS011;42042;51.948;7.628;2023-04-28T13:21:26;15.20;;;13.80;;
3369;SDS011;42042;51.948;7.628;2023-04-28T13:23:54;16.80;;;15.30;;
3369;SDS011;42042;51.948;7.628;2023-04-28T13:26:21;14.60;;;13.30;;
3369;SDS011;42042;51.948;7.628;2023-04-28T13:28:49;16.50;;;15.07;;
3369;SDS011;42042;51.948;7.628;2023-04-28T13:31:16;15.40;;;13.90;;
3369;SDS011;42042;51.948;7.628;2023-04-28T13:33:45;16.73;;;15.13;;
3369;SDS011;42042;51.948;7.628;2023-04-28T13:36:12;15.53;;;14.00;;
3369;SDS011;42042;51.948;7.628;2023-04-28T13:38:39;17.10;;;15.30;;
3369;SDS011;42042;51.948;7.628;2023-04-28T13:41:10;16.70;;;15.20;;
3369;SDS011;42042;51.948;7.628;2023-04-28T13:43:37;17.73;;;16.00;;
3369;SDS011;42042;51.948;7.628;2023-04-28T13:46:04;19.10;;;17.20;;
3369;SDS011;42042;51.948;7.628;2023-04-28T13:48:32;18.33;;;16.63;;
3369;SDS011;42042;51.948;7.628;2023-04-28T13:51:01;20.50;;;18.60;;
3369;SDS011;42042;51.948;7.628;2023-04-28T13:53:29;19.20;;;17.40;;
3369;SDS011;42042;51.948;7.628;2023-04-28T13:55:56;18.80;;;16.87;;
3369;SDS011;42042;51.948;7.628;2023-04-28T13:58:23;21.17;;;18.87;;
3369;SDS011;42042;51.948;7.628;2023-04-28T14:00:50;21.10;;;18.77;;
3369;SDS011;42042;51.948;7.628;2023-04-28T14:03:18;23.40;;;21.10;;
3369;SDS011;42042;51.948;7.628;2023-04-28T14:05:46;22.87;;;20.50;;
3369;SDS011;42042;51.948;7.628;2023-04-28T14:08:14;24.37;;;21.77;;
3369;SDS011;42042;51.948;7.628;2023-04-28T14:10:42;25.00;;;22.60;;
3369;SDS011;42042;51.948;7.628;2023-04-28T14:13:09;24.63;;;22.10;;
3369;SDS011;42042;51.948;7.628;2023-04-28T14:15:36;25.97;;;22.40;;
3369;SDS011;42042;51.948;7.628;2023-04-28T14:18:04;25.63;;;22.93;;
3369;SDS011;42042;51.948;7.628;2023-04-28T14:20:31;25.37;;;22.77;;
3369;SDS011;42042;51.948;7.628;2023-04-28T14:22:58;23.70;;;21.40;;
3369;SDS011;42042;51.948;7.628;2023-04-28T14:25:27;23.93;;;21.47;;
3369;SDS011;42042;51.948;7.628;2023-04-28T14:27:54;27.23;;;24.40;;
3369;SDS011;42042;51.948;7.628;2023-04-28T14:30:22;24.03;;;21.70;;
3369;SDS011;42042;51.948;7.628;2023-04-28T14:32:49;22.97;;;20.67;;
3369;SDS011;42042;51.948;7.628;2023-04-28T14:35:17;24.03;;;21.43;;
3369;SDS011;42042;51.948;7.628;2023-04-28T14:37:45;26.90;;;22.53;;
3369;SDS011;42042;51.948;7.628;2023-04-28T14:40:12;25.17;;;22.53;;
3369;SDS011;42042;51.948;7.628;2023-04-28T14:42:41;23.37;;;20.97;;
3369;SDS011;42042;51.948;7.628;2023-04-28T14:45:09;21.00;;;18.90;;
3369;SDS011;42042;51.948;7.628;2023-04-28T14:47:37;20.67;;;18.47;;
3369;SDS011;42042;51.948;7.628;2023-04-28T14:50:04;20.70;;;18.63;;
3369;SDS011;42042;51.948;7.628;2023-04-28T14:52:32;22.23;;;19.83;;
3369;SDS011;42042;51.948;7.628;2023-04-28T14:54:59;18.33;;;16.53;;
3369;SDS011;42042;51.948;7.628;2023-04-28T14:57:27;20.30;;;18.37;;
3369;SDS011;42042;51.948;7.628;2023-04-28T14:59:55;20.63;;;18.53;;